Terminal Aerodrome Forecast
Issued by NWS Amarillo, TX

Current Version | Previous Version | Text Only | Print | Product List | Glossary On
Versions: 1 2 3 4 5 6 7 8 9 10 11 12 13
000
FTUS44 KAMA 211120
TAFDHT
TAF
KDHT 211120Z 2112/2212 21010KT P6SM SKC
     FM211600 21020G30KT P6SM FEW200
     FM212300 18016KT P6SM SCT200=

USA.gov is the U.S. government's official web portal to all federal, state and local government web resources and services.